Aviation Digital Data Service (ADDS)

Output produced by METARs form (1315 UTC 16 August 2017)
found at http://aviationweather.gov/adds/metars/
 
KARA 161132Z 1612/1712 VRB03KT P6SM FEW015 OVC250 
     FM161500 19010KT P6SM VCTS FEW018CB SCT025 BKN035 
     TEMPO 1616/1620 VRB15G28KT 2SM +TSRA BKN015CB OVC030 
     FM162000 18008KT P6SM VCSH FEW025 SCT035 OVC050 
     FM170100 17004KT P6SM FEW050 BKN250